首页
METAR-TAF:

METAR-TAF

机场 :

哈尔姆斯塔德, 瑞典

纬度: 56-41N, 经度: 012-50E, 海拔: 30米

当前天气观测

该预报发布于17分钟前的15:20 UTC
风速13节,风向南转西南
温度 14°C
湿度 44%
气压 1022 hPa
能见度10公里或以上

METAR: ESMT 081520Z AUTO 21013KT 9999 BKN056/// 14/02 Q1022

时间: 17:37 (15:37 UTC)

预报

该预报发布于4小时和28分钟前的11:09 UTC
预报有效从08日的 12点(UTC)到 08日的 15点(UTC)
风速12节,风向南转西南
能见度10公里或以上
1500米以下无云,无积雨云

TAF: ESMT 081109Z 0812/0815 20012KT CAVOK

超过4000个机场的气象观测和天气预报(METAR&TAF报告)。

可查询的气象台以黄色和红色小点在地图上表示。

将鼠标移到小点上方,可查看气象台名称。

然后点击查看天气观测和预报。

如需切换地图:点击带黑十字的绿色按钮放大地图;点击带横线的绿色按钮缩小地图;或者点击绿色箭头查看邻近地区的地图。


METAR-TAF: